createdAt,value
2022-10-26T00:00:47.722Z,101026.09
2022-10-26T00:03:15.036Z,101027.53
2022-10-26T00:05:41.873Z,101020.84
2022-10-26T00:08:08.460Z,101013.91
2022-10-26T00:10:36.540Z,101009.25
2022-10-26T00:13:03.976Z,101018.22
2022-10-26T00:15:30.730Z,101013.91
2022-10-26T00:17:57.207Z,101015.00
2022-10-26T00:20:24.051Z,101013.97
2022-10-26T00:22:50.610Z,101010.16
2022-10-26T00:25:17.290Z,101015.44
2022-10-26T00:27:43.746Z,101019.75
2022-10-26T00:30:10.343Z,101012.84
2022-10-26T00:32:36.826Z,101014.09
2022-10-26T00:35:10.736Z,101011.25
2022-10-26T00:37:48.219Z,101005.59
2022-10-26T00:40:14.959Z,101008.66
2022-10-26T00:42:41.388Z,101005.84
2022-10-26T00:45:20.378Z,101002.56
2022-10-26T00:47:51.002Z,101008.22
2022-10-26T00:50:38.852Z,101002.56
2022-10-26T00:53:06.925Z,101009.69
2022-10-26T00:55:37.741Z,101000.78
2022-10-26T00:58:08.709Z,101004.25
2022-10-26T01:00:35.181Z,101013.56
2022-10-26T01:03:06.197Z,101011.75
2022-10-26T01:05:34.930Z,101013.56
2022-10-26T01:08:02.344Z,101015.25
2022-10-26T01:10:29.036Z,101001.28
2022-10-26T01:12:57.786Z,100995.34
2022-10-26T01:15:34.053Z,100999.00
2022-10-26T01:18:25.574Z,100984.91
2022-10-26T01:21:39.786Z,100992.31
2022-10-26T01:24:36.345Z,100988.88
2022-10-26T01:27:27.338Z,100983.19
2022-10-26T01:30:21.832Z,100975.25
2022-10-26T01:33:03.170Z,100973.66
2022-10-26T01:35:38.265Z,100969.75
2022-10-26T01:38:19.216Z,100967.38
2022-10-26T01:41:09.656Z,100967.16
2022-10-26T01:43:40.150Z,100958.78
2022-10-26T01:46:09.076Z,100956.78
2022-10-26T01:48:37.446Z,100957.44
2022-10-26T01:51:06.213Z,100960.91
2022-10-26T01:53:32.746Z,100958.06
2022-10-26T01:55:59.912Z,100951.38
2022-10-26T01:58:48.069Z,100956.03
2022-10-26T02:01:42.278Z,100950.41
2022-10-26T02:04:18.334Z,100941.66
2022-10-26T02:07:19.464Z,100940.81
2022-10-26T02:10:23.422Z,100939.38
2022-10-26T02:13:03.216Z,100934.09
2022-10-26T02:15:48.531Z,100939.03
2022-10-26T02:18:24.373Z,100931.47
2022-10-26T02:20:52.653Z,100936.59
2022-10-26T02:23:22.948Z,100928.44
2022-10-26T02:25:56.296Z,100927.22
2022-10-26T02:28:31.145Z,100927.22
2022-10-26T02:31:00.904Z,100925.59
2022-10-26T02:33:30.786Z,100918.47
2022-10-26T02:36:00.699Z,100917.06
2022-10-26T02:38:30.551Z,100920.16
2022-10-26T02:40:58.069Z,100920.31
2022-10-26T02:43:26.505Z,100901.78
2022-10-26T02:45:59.392Z,100904.88
2022-10-26T02:48:25.947Z,100908.53
2022-10-26T02:51:20.390Z,100903.84
2022-10-26T02:53:50.332Z,100909.16
2022-10-26T02:56:24.320Z,100902.66
2022-10-26T02:58:55.672Z,100902.03
2022-10-26T03:01:22.065Z,100902.06
2022-10-26T03:03:48.685Z,100903.53
2022-10-26T03:06:24.490Z,100900.03
2022-10-26T03:08:51.165Z,100895.56
2022-10-26T03:11:17.685Z,100890.44
2022-10-26T03:13:44.522Z,100891.69
2022-10-26T03:16:11.485Z,100896.56
2022-10-26T03:18:37.961Z,100897.59
2022-10-26T03:21:04.398Z,100894.50
2022-10-26T03:23:30.802Z,100903.28
2022-10-26T03:25:58.397Z,100898.63
2022-10-26T03:28:25.075Z,100900.28
2022-10-26T03:30:51.601Z,100906.19
2022-10-26T03:33:18.154Z,100903.75
2022-10-26T03:35:44.624Z,100902.50
2022-10-26T03:38:15.259Z,100898.03
2022-10-26T03:40:42.596Z,100892.75
2022-10-26T03:43:08.990Z,100892.75
2022-10-26T03:45:35.461Z,100896.22
2022-10-26T03:48:01.858Z,100893.56
2022-10-26T03:50:28.242Z,100886.22
2022-10-26T03:52:54.603Z,100894.38
2022-10-26T03:55:21.038Z,100890.47
2022-10-26T03:57:47.465Z,100889.09
2022-10-26T04:00:16.614Z,100893.75
2022-10-26T04:02:54.015Z,100899.69
2022-10-26T04:05:20.565Z,100902.72
2022-10-26T04:07:53.965Z,100893.16
2022-10-26T04:10:20.985Z,100887.06
2022-10-26T04:12:47.425Z,100901.72
2022-10-26T04:15:13.982Z,100902.13
2022-10-26T04:17:40.393Z,100898.44
2022-10-26T04:20:07.701Z,100898.44
2022-10-26T04:22:34.245Z,100891.13
2022-10-26T04:25:00.669Z,100898.28
2022-10-26T04:27:27.071Z,100891.94
2022-10-26T04:29:53.425Z,100892.75
2022-10-26T04:32:19.851Z,100889.28
2022-10-26T04:34:46.310Z,100896.63
2022-10-26T04:37:12.797Z,100894.81
2022-10-26T04:39:39.210Z,100900.50
2022-10-26T04:42:05.643Z,100898.91
2022-10-26T04:44:32.024Z,100901.94
2022-10-26T04:46:58.520Z,100893.59
2022-10-26T04:49:24.889Z,100895.81
2022-10-26T04:51:51.237Z,100889.72
2022-10-26T04:54:17.641Z,100899.06
2022-10-26T04:56:44.061Z,100903.16
2022-10-26T04:59:10.581Z,100902.16
2022-10-26T05:01:37.021Z,100908.88
2022-10-26T05:04:03.549Z,100899.06
2022-10-26T05:06:30.242Z,100901.94
2022-10-26T05:08:56.705Z,100898.88
2022-10-26T05:11:23.127Z,100900.72
2022-10-26T05:13:49.525Z,100902.53
2022-10-26T05:16:16.400Z,100899.28
2022-10-26T05:18:42.795Z,100892.78
2022-10-26T05:21:09.259Z,100898.66
2022-10-26T05:23:35.685Z,100900.31
2022-10-26T05:26:02.066Z,100895.03
2022-10-26T05:28:28.482Z,100890.94
2022-10-26T05:30:54.905Z,100893.97
2022-10-26T05:33:21.309Z,100899.91
2022-10-26T05:35:47.678Z,100901.31
2022-10-26T05:38:17.960Z,100897.03
2022-10-26T05:40:48.828Z,100889.91
2022-10-26T05:43:15.248Z,100886.47
2022-10-26T05:45:41.648Z,100890.34
2022-10-26T05:48:08.099Z,100883.59
2022-10-26T05:50:34.765Z,100887.06
2022-10-26T05:53:01.166Z,100886.66
2022-10-26T05:55:28.207Z,100881.34
2022-10-26T05:57:55.010Z,100892.78
2022-10-26T06:00:24.470Z,100894.81
2022-10-26T06:03:15.165Z,100893.59
2022-10-26T06:05:52.513Z,100893.97
2022-10-26T06:08:20.469Z,100899.69
2022-10-26T06:10:47.954Z,100897.47
2022-10-26T06:13:14.810Z,100902.53
2022-10-26T06:15:53.796Z,100906.22
2022-10-26T06:18:39.586Z,100907.44
2022-10-26T06:21:27.718Z,100912.31
2022-10-26T06:24:07.761Z,100905.81
2022-10-26T06:26:46.089Z,100913.16
2022-10-26T06:29:24.915Z,100919.88
2022-10-26T06:31:51.297Z,100917.81
2022-10-26T06:34:32.873Z,100915.38
2022-10-26T06:37:00.760Z,100923.53
2022-10-26T06:39:35.542Z,100920.47
2022-10-26T06:42:02.350Z,100920.66
2022-10-26T06:44:29.052Z,100916.38
2022-10-26T06:47:04.558Z,100924.56
2022-10-26T06:49:42.728Z,100923.34
2022-10-26T06:52:20.862Z,100920.88
2022-10-26T06:54:55.586Z,100914.97
2022-10-26T06:57:25.131Z,100914.78
2022-10-26T06:59:54.153Z,100925.81
2022-10-26T07:02:21.053Z,100922.97
2022-10-26T07:04:47.635Z,100920.13
2022-10-26T07:07:17.678Z,100921.13
2022-10-26T07:09:44.079Z,100927.47
2022-10-26T07:12:10.495Z,100929.47
2022-10-26T07:14:36.896Z,100936.22
2022-10-26T07:17:03.519Z,100932.34
2022-10-26T07:19:29.933Z,100937.63
2022-10-26T07:21:57.475Z,100933.13
2022-10-26T07:24:24.089Z,100945.78
2022-10-26T07:26:50.606Z,100943.13
2022-10-26T07:29:18.122Z,100944.97
2022-10-26T07:31:44.583Z,100949.03
2022-10-26T07:34:11.035Z,100954.97
2022-10-26T07:36:37.662Z,100950.03
2022-10-26T07:39:04.476Z,100946.38
2022-10-26T07:41:30.930Z,100955.34
2022-10-26T07:43:57.731Z,100949.44
2022-10-26T07:46:24.681Z,100959.22
2022-10-26T07:48:51.202Z,100962.47
2022-10-26T07:51:17.756Z,100961.44
2022-10-26T07:53:45.044Z,100973.50
2022-10-26T07:56:12.083Z,100970.19
2022-10-26T07:58:38.872Z,100966.03
2022-10-26T08:01:11.381Z,100962.75
2022-10-26T08:03:38.013Z,100958.66
2022-10-26T08:06:05.084Z,100968.81
2022-10-26T08:08:32.538Z,100961.38
2022-10-26T08:10:59.586Z,100951.25
2022-10-26T08:13:26.839Z,100954.16
2022-10-26T08:16:00.893Z,100950.81
2022-10-26T08:18:27.507Z,100956.19
2022-10-26T08:20:58.774Z,100964.59
2022-10-26T08:23:32.576Z,100966.59
2022-10-26T08:26:03.322Z,100972.16
2022-10-26T08:28:30.171Z,100970.59
2022-10-26T08:30:57.333Z,100990.28
2022-10-26T08:33:24.269Z,100994.84
2022-10-26T08:35:58.131Z,101004.09
2022-10-26T08:38:24.913Z,100999.28
2022-10-26T08:40:52.941Z,101007.25
2022-10-26T08:43:28.011Z,101001.34
2022-10-26T08:46:00.821Z,100999.63
2022-10-26T08:48:37.808Z,100993.78
2022-10-26T08:51:15.886Z,101000.84
2022-10-26T08:54:01.804Z,100990.72
2022-10-26T08:56:37.784Z,100987.69
2022-10-26T08:59:29.929Z,100981.78
2022-10-26T09:01:56.686Z,100991.16
2022-10-26T09:04:28.061Z,101000.72
2022-10-26T09:07:06.300Z,101007.78
2022-10-26T09:09:43.909Z,101024.81
2022-10-26T09:12:42.407Z,101047.97
2022-10-26T09:15:23.817Z,101032.00
2022-10-26T09:18:11.715Z,101025.94
2022-10-26T09:20:53.579Z,101039.56
2022-10-26T09:23:50.826Z,101061.97
2022-10-26T09:26:44.773Z,101051.03
2022-10-26T09:29:14.091Z,101071.75
2022-10-26T09:31:47.443Z,101069.13
2022-10-26T09:34:20.243Z,101054.44
2022-10-26T09:36:47.033Z,101072.19
2022-10-26T09:39:28.363Z,101071.72
2022-10-26T09:42:14.479Z,101065.72
2022-10-26T09:44:50.310Z,101069.59
2022-10-26T09:47:32.037Z,101071.94
2022-10-26T09:50:23.540Z,101074.78
2022-10-26T09:52:50.193Z,101071.69
2022-10-26T09:55:17.161Z,101088.75
2022-10-26T09:57:50.338Z,101090.13
2022-10-26T10:00:19.089Z,101093.16
2022-10-26T10:02:51.021Z,101098.59
2022-10-26T10:05:27.519Z,101099.63
2022-10-26T10:08:25.911Z,101092.44
2022-10-26T10:11:08.915Z,101092.72
2022-10-26T10:13:46.378Z,101085.81
2022-10-26T10:16:20.659Z,101097.75
2022-10-26T10:18:55.181Z,101103.06
2022-10-26T10:21:22.276Z,101112.44
2022-10-26T10:23:54.600Z,101115.44
2022-10-26T10:26:21.006Z,101109.84
2022-10-26T10:28:59.100Z,101112.28
2022-10-26T10:31:30.626Z,101113.31
2022-10-26T10:33:57.734Z,101122.81
2022-10-26T10:36:29.251Z,101123.59
2022-10-26T10:38:56.389Z,101125.53
2022-10-26T10:41:32.606Z,101130.56
2022-10-26T10:44:16.001Z,101138.66
2022-10-26T10:46:42.830Z,101129.81
2022-10-26T10:49:23.754Z,101147.13
2022-10-26T10:51:51.021Z,101139.38
2022-10-26T10:54:33.714Z,101145.84
2022-10-26T10:57:14.182Z,101149.19
2022-10-26T11:00:09.585Z,101150.72
2022-10-26T11:03:01.214Z,101152.50
2022-10-26T11:05:49.213Z,101155.88
2022-10-26T11:08:26.148Z,101159.66
2022-10-26T11:11:00.497Z,101157.28
2022-10-26T11:13:37.333Z,101166.63
2022-10-26T11:16:19.326Z,101161.06
2022-10-26T11:18:52.651Z,101155.69
2022-10-26T11:21:26.192Z,101156.06
2022-10-26T11:24:01.625Z,101157.53
2022-10-26T11:26:34.198Z,101171.44
2022-10-26T11:29:38.358Z,101168.19
2022-10-26T11:32:43.517Z,101172.84
2022-10-26T11:35:33.106Z,101173.22
2022-10-26T11:38:28.012Z,101171.81
2022-10-26T11:41:25.240Z,101180.28
2022-10-26T11:44:05.368Z,101183.06
2022-10-26T11:46:38.064Z,101173.25
2022-10-26T11:49:19.630Z,101173.84
2022-10-26T11:51:57.821Z,101176.50
2022-10-26T11:54:31.880Z,101175.03
2022-10-26T11:56:59.556Z,101180.88
2022-10-26T11:59:33.064Z,101185.34
2022-10-26T12:02:14.164Z,101179.47
2022-10-26T12:04:44.523Z,101194.00
2022-10-26T12:07:20.226Z,101181.41
2022-10-26T12:09:46.619Z,101185.91
2022-10-26T12:12:17.613Z,101191.25
2022-10-26T12:15:01.926Z,101188.19
2022-10-26T12:17:35.713Z,101189.88
2022-10-26T12:20:30.162Z,101189.66
2022-10-26T12:22:56.650Z,101195.88
2022-10-26T12:25:23.175Z,101196.38
2022-10-26T12:27:53.774Z,101202.06
2022-10-26T12:30:26.968Z,101208.81
2022-10-26T12:32:55.572Z,101221.47
2022-10-26T12:35:42.698Z,101208.81
2022-10-26T12:38:24.187Z,101210.16
2022-10-26T12:41:09.851Z,101214.88
2022-10-26T12:43:39.304Z,101230.22
2022-10-26T12:46:14.735Z,101219.28
2022-10-26T12:48:45.887Z,101230.09
2022-10-26T12:51:27.428Z,101228.22
2022-10-26T12:54:01.632Z,101230.28
2022-10-26T12:56:35.670Z,101232.81
2022-10-26T12:59:22.534Z,101233.97
2022-10-26T13:02:27.738Z,101226.25
2022-10-26T13:05:21.825Z,101239.41
2022-10-26T13:07:49.720Z,101240.31
2022-10-26T13:10:21.582Z,101239.97
2022-10-26T13:12:57.719Z,101228.75
2022-10-26T13:15:29.549Z,101238.91
2022-10-26T13:18:07.509Z,101240.59
2022-10-26T13:20:36.276Z,101229.81
2022-10-26T13:23:17.037Z,101242.44
2022-10-26T13:26:05.864Z,101241.22
2022-10-26T13:28:38.395Z,101236.22
2022-10-26T13:31:41.512Z,101235.63
2022-10-26T13:34:16.608Z,101237.88
2022-10-26T13:36:55.296Z,101243.19
2022-10-26T13:39:29.202Z,101249.31
2022-10-26T13:41:58.056Z,101249.13
2022-10-26T13:44:38.834Z,101251.25
2022-10-26T13:47:11.555Z,101244.84
2022-10-26T13:49:45.406Z,101248.47
2022-10-26T13:52:34.093Z,101253.47
2022-10-26T13:55:07.875Z,101251.22
2022-10-26T13:57:45.971Z,101260.63
2022-10-26T14:00:22.252Z,101260.41
2022-10-26T14:02:49.267Z,101267.56
2022-10-26T14:05:17.863Z,101263.28
2022-10-26T14:07:58.147Z,101257.75
2022-10-26T14:10:29.474Z,101255.16
2022-10-26T14:12:57.574Z,101258.69
2022-10-26T14:15:27.941Z,101256.16
2022-10-26T14:17:55.600Z,101266.75
2022-10-26T14:20:24.637Z,101269.81
2022-10-26T14:22:51.609Z,101269.28
2022-10-26T14:25:42.041Z,101272.47
2022-10-26T14:28:29.471Z,101268.66
2022-10-26T14:31:15.121Z,101275.06
2022-10-26T14:33:44.381Z,101271.47
2022-10-26T14:36:11.473Z,101273.53
2022-10-26T14:38:44.520Z,101276.53
2022-10-26T14:41:14.059Z,101282.19
2022-10-26T14:43:40.583Z,101289.78
2022-10-26T14:46:14.608Z,101288.75
2022-10-26T14:48:49.827Z,101285.38
2022-10-26T14:51:18.855Z,101285.13
2022-10-26T14:53:53.331Z,101286.44
2022-10-26T14:56:48.974Z,101287.16
2022-10-26T14:59:27.607Z,101290.53
2022-10-26T15:01:56.830Z,101294.69
2022-10-26T15:04:32.893Z,101290.38
2022-10-26T15:07:09.833Z,101298.22
2022-10-26T15:09:43.877Z,101299.81
2022-10-26T15:12:27.241Z,101303.97
2022-10-26T15:14:53.931Z,101313.34
2022-10-26T15:17:24.468Z,101316.19
2022-10-26T15:19:52.171Z,101310.03
2022-10-26T15:22:32.070Z,101323.63
2022-10-26T15:25:02.379Z,101321.81
2022-10-26T15:27:28.863Z,101325.69
2022-10-26T15:30:18.766Z,101336.19
2022-10-26T15:32:45.859Z,101338.75
2022-10-26T15:35:19.725Z,101337.59
2022-10-26T15:37:47.598Z,101343.84
2022-10-26T15:40:14.782Z,101349.00
2022-10-26T15:42:42.548Z,101347.59
2022-10-26T15:45:36.113Z,101351.34
2022-10-26T15:48:18.982Z,101357.94
2022-10-26T15:50:45.400Z,101366.38
2022-10-26T15:53:19.182Z,101365.72
2022-10-26T15:55:45.906Z,101359.50
2022-10-26T15:58:12.350Z,101368.50
2022-10-26T16:00:38.746Z,101372.06
2022-10-26T16:03:05.184Z,101371.03
2022-10-26T16:08:03.049Z,101380.00
2022-10-26T16:10:29.551Z,101390.94
2022-10-26T16:12:56.021Z,101393.88
2022-10-26T16:15:24.602Z,101385.16
2022-10-26T16:17:51.949Z,101385.81
2022-10-26T16:20:24.970Z,101393.41
2022-10-26T16:22:52.874Z,101391.28
2022-10-26T16:25:25.406Z,101402.13
2022-10-26T16:27:53.458Z,101407.84
2022-10-26T16:30:21.100Z,101410.94
2022-10-26T16:32:48.275Z,101426.53
2022-10-26T16:35:15.185Z,101431.84
2022-10-26T16:37:41.701Z,101432.66
2022-10-26T16:40:09.530Z,101443.09
2022-10-26T16:42:36.135Z,101453.09
2022-10-26T16:45:03.328Z,101455.38
2022-10-26T16:47:35.397Z,101455.97
2022-10-26T16:50:02.417Z,101460.22
2022-10-26T16:52:28.879Z,101458.38
2022-10-26T16:54:55.317Z,101466.13
2022-10-26T16:57:21.777Z,101477.56
2022-10-26T16:59:48.207Z,101480.00
2022-10-26T17:02:15.169Z,101483.69
2022-10-26T17:04:41.718Z,101482.22
2022-10-26T17:07:08.342Z,101489.53
2022-10-26T17:09:34.993Z,101493.41
2022-10-26T17:12:02.229Z,101490.72
2022-10-26T17:14:28.841Z,101504.34
2022-10-26T17:16:55.256Z,101501.03
2022-10-26T17:19:21.654Z,101499.19
2022-10-26T17:21:48.067Z,101515.13
2022-10-26T17:24:14.854Z,101514.50
2022-10-26T17:26:41.744Z,101517.13
2022-10-26T17:31:40.933Z,101517.31
2022-10-26T17:34:07.456Z,101515.22
2022-10-26T17:36:34.258Z,101531.53
2022-10-26T17:39:00.968Z,101529.94
2022-10-26T17:41:27.399Z,101539.09
2022-10-26T17:43:53.797Z,101537.84
2022-10-26T17:46:24.201Z,101542.78
2022-10-26T17:48:58.242Z,101561.72
2022-10-26T17:51:26.216Z,101557.41
2022-10-26T17:53:53.104Z,101559.22
2022-10-26T17:56:24.781Z,101568.19
2022-10-26T17:58:55.939Z,101571.47
2022-10-26T18:01:23.246Z,101574.63
2022-10-26T18:03:50.199Z,101580.50
2022-10-26T18:06:20.010Z,101582.69
2022-10-26T18:08:46.916Z,101587.72
2022-10-26T18:11:25.357Z,101593.66
2022-10-26T18:13:53.803Z,101594.59
2022-10-26T18:16:24.329Z,101592.88
2022-10-26T18:19:04.691Z,101593.34
2022-10-26T18:21:33.862Z,101598.66
2022-10-26T18:24:00.572Z,101600.31
2022-10-26T18:26:28.870Z,101609.22
2022-10-26T18:28:56.434Z,101610.81
2022-10-26T18:31:24.805Z,101612.44
2022-10-26T18:33:59.260Z,101616.69
2022-10-26T18:36:26.423Z,101621.78
2022-10-26T18:38:53.649Z,101628.59
2022-10-26T18:41:21.366Z,101629.66
2022-10-26T18:43:50.045Z,101629.41
2022-10-26T18:46:24.595Z,101637.94
2022-10-26T18:48:52.407Z,101633.38
2022-10-26T18:51:25.314Z,101640.25
2022-10-26T18:53:52.093Z,101641.88
2022-10-26T18:56:20.783Z,101643.53
2022-10-26T18:58:49.730Z,101646.13
2022-10-26T19:01:21.457Z,101648.47
2022-10-26T19:03:52.358Z,101656.81
2022-10-26T19:06:21.541Z,101650.75
2022-10-26T19:08:48.245Z,101646.94
2022-10-26T19:11:17.353Z,101650.69
2022-10-26T19:13:44.413Z,101660.00
2022-10-26T19:16:17.466Z,101659.09
2022-10-26T19:21:22.666Z,101654.94
2022-10-26T19:23:53.720Z,101666.44
2022-10-26T19:26:25.518Z,101666.16
2022-10-26T19:28:59.189Z,101673.47
2022-10-26T19:31:27.623Z,101671.00
2022-10-26T19:33:56.429Z,101676.38
2022-10-26T19:36:22.932Z,101682.16
2022-10-26T19:38:49.539Z,101687.44
2022-10-26T19:41:16.836Z,101687.16
2022-10-26T19:43:43.885Z,101688.63
2022-10-26T19:46:13.597Z,101688.69
2022-10-26T19:48:41.183Z,101686.59
2022-10-26T19:51:08.560Z,101697.47
2022-10-26T19:53:35.520Z,101696.63
2022-10-26T19:56:02.365Z,101701.13
2022-10-26T19:58:31.263Z,101693.63
2022-10-26T20:00:59.149Z,101697.34
2022-10-26T20:03:26.543Z,101705.84
2022-10-26T20:05:56.769Z,101708.13
2022-10-26T20:08:23.916Z,101704.81
2022-10-26T20:10:54.211Z,101710.91
2022-10-26T20:13:21.122Z,101705.16
2022-10-26T20:15:49.889Z,101706.16
2022-10-26T20:18:16.770Z,101710.00
2022-10-26T20:20:43.319Z,101707.25
2022-10-26T20:23:10.943Z,101706.22
2022-10-26T20:25:39.290Z,101705.19
2022-10-26T20:28:06.658Z,101709.28
2022-10-26T20:30:35.269Z,101706.50
2022-10-26T20:33:01.698Z,101707.94
2022-10-26T20:35:28.202Z,101710.97
2022-10-26T20:37:55.878Z,101711.78
2022-10-26T20:40:23.978Z,101715.72
2022-10-26T20:42:52.639Z,101717.06
2022-10-26T20:45:30.159Z,101714.59
2022-10-26T20:47:57.824Z,101713.13
2022-10-26T20:50:26.219Z,101719.50
2022-10-26T20:53:01.714Z,101727.59
2022-10-26T20:55:54.513Z,101730.72
2022-10-26T20:58:37.542Z,101736.06
2022-10-26T21:01:07.615Z,101738.38
2022-10-26T21:03:34.122Z,101743.78
2022-10-26T21:06:00.546Z,101740.13
2022-10-26T21:08:26.947Z,101737.19
2022-10-26T21:10:53.393Z,101745.00
2022-10-26T21:13:19.811Z,101746.97
2022-10-26T21:15:46.196Z,101751.09
2022-10-26T21:18:13.004Z,101756.06
2022-10-26T21:20:39.369Z,101761.47
2022-10-26T21:23:05.737Z,101770.91
2022-10-26T21:25:32.231Z,101764.28
2022-10-26T21:27:58.860Z,101759.56
2022-10-26T21:30:25.951Z,101760.44
2022-10-26T21:32:53.172Z,101758.09
2022-10-26T21:35:20.971Z,101759.72
2022-10-26T21:37:47.485Z,101763.53
2022-10-26T21:40:14.714Z,101758.31
2022-10-26T21:42:41.393Z,101766.72
2022-10-26T21:45:08.488Z,101769.22
2022-10-26T21:47:34.922Z,101768.22
2022-10-26T21:50:01.466Z,101767.09
2022-10-26T21:52:28.701Z,101768.06
2022-10-26T21:54:55.053Z,101767.91
2022-10-26T21:57:21.475Z,101774.88
2022-10-26T21:59:47.970Z,101776.34
2022-10-26T22:02:14.425Z,101774.22
2022-10-26T22:04:40.869Z,101771.66
2022-10-26T22:07:07.271Z,101777.31
2022-10-26T22:09:40.609Z,101771.41
2022-10-26T22:12:15.946Z,101769.41
2022-10-26T22:14:42.593Z,101783.28
2022-10-26T22:17:09.030Z,101773.56
2022-10-26T22:19:35.470Z,101769.41
2022-10-26T22:22:01.894Z,101769.78
2022-10-26T22:24:28.328Z,101771.59
2022-10-26T22:26:54.670Z,101780.84
2022-10-26T22:29:21.105Z,101773.13
2022-10-26T22:31:47.532Z,101780.72
2022-10-26T22:34:16.051Z,101778.41
2022-10-26T22:36:43.163Z,101777.06
2022-10-26T22:39:09.579Z,101774.03
2022-10-26T22:41:35.974Z,101775.03
2022-10-26T22:44:02.541Z,101771.72
2022-10-26T22:46:28.924Z,101772.00
2022-10-26T22:49:00.400Z,101780.56
2022-10-26T22:51:30.254Z,101776.63
2022-10-26T22:53:58.721Z,101782.94
2022-10-26T22:58:58.355Z,101781.59
2022-10-26T23:01:27.314Z,101786.00
2022-10-26T23:03:56.203Z,101785.41
2022-10-26T23:06:24.625Z,101783.41
2022-10-26T23:08:51.100Z,101776.19
2022-10-26T23:11:20.208Z,101788.88
2022-10-26T23:13:47.229Z,101789.41
2022-10-26T23:16:20.419Z,101790.56
2022-10-26T23:18:47.870Z,101780.91
2022-10-26T23:21:15.356Z,101785.94
2022-10-26T23:23:42.414Z,101785.69
2022-10-26T23:26:12.828Z,101785.63
2022-10-26T23:28:40.382Z,101795.25
2022-10-26T23:31:07.643Z,101797.94
2022-10-26T23:33:34.512Z,101802.91
2022-10-26T23:36:01.514Z,101797.44
2022-10-26T23:38:27.906Z,101795.22
2022-10-26T23:40:56.749Z,101795.25
2022-10-26T23:43:23.904Z,101786.38
2022-10-26T23:45:50.513Z,101785.97
2022-10-26T23:48:17.478Z,101793.91
2022-10-26T23:50:45.644Z,101801.28
2022-10-26T23:53:13.009Z,101795.41
2022-10-26T23:55:39.587Z,101792.66
2022-10-26T23:58:06.360Z,101791.00
